sensor_id;sensor_type;location;lat;lon;timestamp;pressure;altitude;pressure_sealevel;temperature;humidity
11448;BME280;43755;49.736;8.734;2022-12-29T00:01:00;97214.88;;;10.39;100.00
11448;BME280;43755;49.736;8.734;2022-12-29T00:03:02;97182.03;;;10.43;100.00
11448;BME280;43755;49.736;8.734;2022-12-29T00:05:04;97212.06;;;10.42;100.00
11448;BME280;43755;49.736;8.734;2022-12-29T00:07:06;97213.94;;;10.40;100.00
11448;BME280;43755;49.736;8.734;2022-12-29T00:09:07;97205.94;;;10.42;100.00
11448;BME280;43755;49.736;8.734;2022-12-29T00:11:11;97207.78;;;10.40;100.00
11448;BME280;43755;49.736;8.734;2022-12-29T00:13:12;97203.84;;;10.31;100.00
11448;BME280;43755;49.736;8.734;2022-12-29T00:15:37;97203.94;;;10.30;100.00
11448;BME280;43755;49.736;8.734;2022-12-29T00:17:40;97214.59;;;10.28;100.00
11448;BME280;43755;49.736;8.734;2022-12-29T00:19:41;97210.31;;;10.25;100.00
11448;BME280;43755;49.736;8.734;2022-12-29T00:22:00;97198.81;;;10.26;100.00
11448;BME280;43755;49.736;8.734;2022-12-29T00:24:21;97200.78;;;10.23;100.00
11448;BME280;43755;49.736;8.734;2022-12-29T00:26:40;97207.84;;;10.22;100.00
11448;BME280;43755;49.736;8.734;2022-12-29T00:28:59;97209.91;;;10.17;100.00
11448;BME280;43755;49.736;8.734;2022-12-29T00:31:18;97208.19;;;10.16;100.00
11448;BME280;43755;49.736;8.734;2022-12-29T00:33:38;97199.06;;;10.22;100.00
11448;BME280;43755;49.736;8.734;2022-12-29T00:35:59;97219.63;;;10.17;100.00
11448;BME280;43755;49.736;8.734;2022-12-29T00:38:05;97210.88;;;10.15;100.00
11448;BME280;43755;49.736;8.734;2022-12-29T00:40:24;97224.16;;;10.13;100.00
11448;BME280;43755;49.736;8.734;2022-12-29T00:42:43;97208.47;;;10.10;100.00
11448;BME280;43755;49.736;8.734;2022-12-29T00:45:03;97207.63;;;10.10;100.00
11448;BME280;43755;49.736;8.734;2022-12-29T00:47:04;97201.72;;;10.05;100.00
11448;BME280;43755;49.736;8.734;2022-12-29T00:49:09;97199.81;;;9.91;100.00
11448;BME280;43755;49.736;8.734;2022-12-29T00:51:28;97206.84;;;9.75;100.00
11448;BME280;43755;49.736;8.734;2022-12-29T00:53:29;97200.00;;;9.71;100.00
11448;BME280;43755;49.736;8.734;2022-12-29T00:55:31;97209.47;;;9.75;100.00
11448;BME280;43755;49.736;8.734;2022-12-29T00:57:32;97198.63;;;9.64;100.00
11448;BME280;43755;49.736;8.734;2022-12-29T00:59:34;97207.34;;;9.66;100.00
11448;BME280;43755;49.736;8.734;2022-12-29T01:01:37;97191.81;;;9.60;100.00
11448;BME280;43755;49.736;8.734;2022-12-29T01:03:39;97196.78;;;9.66;100.00
11448;BME280;43755;49.736;8.734;2022-12-29T01:05:41;97174.13;;;9.60;100.00
11448;BME280;43755;49.736;8.734;2022-12-29T01:07:43;97200.53;;;9.60;100.00
11448;BME280;43755;49.736;8.734;2022-12-29T01:09:44;97193.47;;;9.61;100.00
11448;BME280;43755;49.736;8.734;2022-12-29T01:12:04;97187.19;;;9.63;100.00
11448;BME280;43755;49.736;8.734;2022-12-29T01:14:06;97190.84;;;9.61;100.00
11448;BME280;43755;49.736;8.734;2022-12-29T01:16:08;97193.47;;;9.61;100.00
11448;BME280;43755;49.736;8.734;2022-12-29T01:18:09;97193.72;;;9.56;100.00
11448;BME280;43755;49.736;8.734;2022-12-29T01:20:11;97192.13;;;9.54;100.00
11448;BME280;43755;49.736;8.734;2022-12-29T01:22:14;97186.28;;;9.47;100.00
11448;BME280;43755;49.736;8.734;2022-12-29T01:24:16;97183.22;;;9.55;100.00
11448;BME280;43755;49.736;8.734;2022-12-29T01:26:18;97187.69;;;9.54;100.00
11448;BME280;43755;49.736;8.734;2022-12-29T01:28:19;97169.03;;;9.57;100.00
11448;BME280;43755;49.736;8.734;2022-12-29T01:30:21;97173.75;;;9.68;100.00
11448;BME280;43755;49.736;8.734;2022-12-29T01:32:22;97186.94;;;9.68;100.00
11448;BME280;43755;49.736;8.734;2022-12-29T01:34:24;97184.25;;;9.69;100.00
11448;BME280;43755;49.736;8.734;2022-12-29T01:36:25;97184.00;;;9.74;100.00
11448;BME280;43755;49.736;8.734;2022-12-29T01:38:28;97189.28;;;9.74;100.00
11448;BME280;43755;49.736;8.734;2022-12-29T01:40:29;97183.91;;;9.75;100.00
11448;BME280;43755;49.736;8.734;2022-12-29T01:42:31;97180.44;;;9.75;100.00
11448;BME280;43755;49.736;8.734;2022-12-29T01:44:47;97184.25;;;9.69;100.00
11448;BME280;43755;49.736;8.734;2022-12-29T01:46:51;97186.81;;;9.71;100.00
11448;BME280;43755;49.736;8.734;2022-12-29T01:48:54;97188.66;;;9.69;100.00
11448;BME280;43755;49.736;8.734;2022-12-29T01:50:56;97185.16;;;9.68;100.00
11448;BME280;43755;49.736;8.734;2022-12-29T01:53:01;97188.91;;;9.64;100.00
11448;BME280;43755;49.736;8.734;2022-12-29T01:55:05;97179.34;;;9.62;100.00
11448;BME280;43755;49.736;8.734;2022-12-29T01:57:10;97169.66;;;9.62;100.00
11448;BME280;43755;49.736;8.734;2022-12-29T01:59:16;97173.31;;;9.60;100.00
11448;BME280;43755;49.736;8.734;2022-12-29T02:01:19;97171.44;;;9.62;100.00
11448;BME280;43755;49.736;8.734;2022-12-29T02:03:24;97180.69;;;9.53;100.00
11448;BME280;43755;49.736;8.734;2022-12-29T02:05:30;97186.84;;;9.54;100.00
11448;BME280;43755;49.736;8.734;2022-12-29T02:07:34;97168.34;;;9.54;100.00
11448;BME280;43755;49.736;8.734;2022-12-29T02:09:35;97171.84;;;9.54;100.00
11448;BME280;43755;49.736;8.734;2022-12-29T02:11:38;97173.53;;;9.55;100.00
11448;BME280;43755;49.736;8.734;2022-12-29T02:13:40;97177.63;;;9.61;100.00
11448;BME280;43755;49.736;8.734;2022-12-29T02:15:49;97159.00;;;9.64;100.00
11448;BME280;43755;49.736;8.734;2022-12-29T02:18:06;97168.41;;;9.69;100.00
11448;BME280;43755;49.736;8.734;2022-12-29T02:20:37;97169.25;;;9.70;100.00
11448;BME280;43755;49.736;8.734;2022-12-29T02:22:55;97157.44;;;9.77;100.00
11448;BME280;43755;49.736;8.734;2022-12-29T02:25:30;97158.28;;;9.77;100.00
11448;BME280;43755;49.736;8.734;2022-12-29T02:27:51;97169.69;;;9.78;100.00
11448;BME280;43755;49.736;8.734;2022-12-29T02:30:04;97159.66;;;9.84;100.00
11448;BME280;43755;49.736;8.734;2022-12-29T02:32:11;97160.69;;;9.82;100.00
11448;BME280;43755;49.736;8.734;2022-12-29T02:34:22;97157.97;;;9.83;100.00
11448;BME280;43755;49.736;8.734;2022-12-29T02:36:33;97152.75;;;9.82;100.00
11448;BME280;43755;49.736;8.734;2022-12-29T02:38:50;97154.63;;;9.80;100.00
11448;BME280;43755;49.736;8.734;2022-12-29T02:40:57;97143.91;;;9.83;100.00
11448;BME280;43755;49.736;8.734;2022-12-29T02:43:04;97147.22;;;9.86;100.00
11448;BME280;43755;49.736;8.734;2022-12-29T02:45:13;97145.44;;;9.87;100.00
11448;BME280;43755;49.736;8.734;2022-12-29T02:47:22;97148.09;;;9.87;100.00
11448;BME280;43755;49.736;8.734;2022-12-29T02:49:31;97141.75;;;9.90;100.00
11448;BME280;43755;49.736;8.734;2022-12-29T02:51:42;97137.59;;;9.85;100.00
11448;BME280;43755;49.736;8.734;2022-12-29T02:53:45;97134.88;;;9.87;100.00
11448;BME280;43755;49.736;8.734;2022-12-29T02:56:05;97141.94;;;9.86;100.00
11448;BME280;43755;49.736;8.734;2022-12-29T02:58:16;97133.00;;;9.89;100.00
11448;BME280;43755;49.736;8.734;2022-12-29T03:00:18;97135.66;;;9.89;100.00
11448;BME280;43755;49.736;8.734;2022-12-29T03:02:42;97141.00;;;9.88;100.00
11448;BME280;43755;49.736;8.734;2022-12-29T03:04:58;97123.19;;;9.91;100.00
11448;BME280;43755;49.736;8.734;2022-12-29T03:07:08;97132.91;;;9.91;100.00
11448;BME280;43755;49.736;8.734;2022-12-29T03:09:14;97106.66;;;9.88;100.00
11448;BME280;43755;49.736;8.734;2022-12-29T03:11:24;97121.66;;;9.87;100.00
11448;BME280;43755;49.736;8.734;2022-12-29T03:13:49;97119.81;;;9.89;100.00
11448;BME280;43755;49.736;8.734;2022-12-29T03:16:15;97113.56;;;9.90;100.00
11448;BME280;43755;49.736;8.734;2022-12-29T03:18:22;97114.34;;;9.92;100.00
11448;BME280;43755;49.736;8.734;2022-12-29T03:20:32;97111.56;;;9.95;100.00
11448;BME280;43755;49.736;8.734;2022-12-29T03:22:39;97113.94;;;10.00;100.00
11448;BME280;43755;49.736;8.734;2022-12-29T03:24:46;97105.94;;;10.01;100.00
11448;BME280;43755;49.736;8.734;2022-12-29T03:26:49;97110.25;;;10.02;100.00
11448;BME280;43755;49.736;8.734;2022-12-29T03:28:53;97116.50;;;10.01;100.00
11448;BME280;43755;49.736;8.734;2022-12-29T03:30:57;97111.97;;;10.03;100.00
11448;BME280;43755;49.736;8.734;2022-12-29T03:33:03;97112.16;;;10.00;100.00
11448;BME280;43755;49.736;8.734;2022-12-29T03:35:10;97095.44;;;10.00;100.00
11448;BME280;43755;49.736;8.734;2022-12-29T03:37:15;97100.72;;;10.00;100.00
11448;BME280;43755;49.736;8.734;2022-12-29T03:39:21;97096.81;;;10.07;100.00
11448;BME280;43755;49.736;8.734;2022-12-29T03:41:26;97084.00;;;10.15;100.00
11448;BME280;43755;49.736;8.734;2022-12-29T03:43:30;97097.50;;;10.10;100.00
11448;BME280;43755;49.736;8.734;2022-12-29T03:45:32;97094.00;;;10.10;100.00
11448;BME280;43755;49.736;8.734;2022-12-29T03:47:33;97094.78;;;10.12;100.00
11448;BME280;43755;49.736;8.734;2022-12-29T03:49:34;97094.31;;;10.04;100.00
11448;BME280;43755;49.736;8.734;2022-12-29T03:51:37;97107.28;;;10.08;100.00
11448;BME280;43755;49.736;8.734;2022-12-29T03:53:39;97100.38;;;10.06;100.00
11448;BME280;43755;49.736;8.734;2022-12-29T03:55:40;97089.03;;;10.04;100.00
11448;BME280;43755;49.736;8.734;2022-12-29T03:57:42;97078.53;;;10.02;100.00
11448;BME280;43755;49.736;8.734;2022-12-29T03:59:43;97098.75;;;10.03;100.00
11448;BME280;43755;49.736;8.734;2022-12-29T04:01:44;97087.06;;;10.07;100.00
11448;BME280;43755;49.736;8.734;2022-12-29T04:03:46;97078.41;;;10.05;100.00
11448;BME280;43755;49.736;8.734;2022-12-29T04:05:50;97092.53;;;10.04;100.00
11448;BME280;43755;49.736;8.734;2022-12-29T04:07:53;97087.06;;;10.07;100.00
11448;BME280;43755;49.736;8.734;2022-12-29T04:09:54;97079.00;;;10.10;100.00
11448;BME280;43755;49.736;8.734;2022-12-29T04:11:56;97080.00;;;10.08;100.00
11448;BME280;43755;49.736;8.734;2022-12-29T04:13:57;97080.84;;;10.08;100.00
11448;BME280;43755;49.736;8.734;2022-12-29T04:15:59;97080.63;;;10.13;100.00
11448;BME280;43755;49.736;8.734;2022-12-29T04:18:00;97079.78;;;10.12;100.00
11448;BME280;43755;49.736;8.734;2022-12-29T04:20:02;97076.34;;;10.10;100.00
11448;BME280;43755;49.736;8.734;2022-12-29T04:22:17;97076.41;;;10.09;100.00
11448;BME280;43755;49.736;8.734;2022-12-29T04:24:20;97077.28;;;10.09;100.00
11448;BME280;43755;49.736;8.734;2022-12-29T04:26:21;97076.50;;;10.07;100.00
11448;BME280;43755;49.736;8.734;2022-12-29T04:28:23;97069.44;;;10.08;100.00
11448;BME280;43755;49.736;8.734;2022-12-29T04:30:25;97058.84;;;10.08;100.00
11448;BME280;43755;49.736;8.734;2022-12-29T04:32:26;97055.22;;;10.10;100.00
11448;BME280;43755;49.736;8.734;2022-12-29T04:34:27;97058.44;;;10.15;100.00
11448;BME280;43755;49.736;8.734;2022-12-29T04:36:29;97060.31;;;10.13;100.00
11448;BME280;43755;49.736;8.734;2022-12-29T04:38:30;97050.69;;;10.12;100.00
11448;BME280;43755;49.736;8.734;2022-12-29T04:40:33;97039.94;;;10.15;100.00
11448;BME280;43755;49.736;8.734;2022-12-29T04:42:35;97039.63;;;10.21;100.00
11448;BME280;43755;49.736;8.734;2022-12-29T04:44:36;97045.00;;;10.20;100.00
11448;BME280;43755;49.736;8.734;2022-12-29T04:46:37;97048.59;;;10.19;100.00
11448;BME280;43755;49.736;8.734;2022-12-29T04:48:39;97046.97;;;10.16;100.00
11448;BME280;43755;49.736;8.734;2022-12-29T04:50:41;97057.53;;;10.16;100.00
11448;BME280;43755;49.736;8.734;2022-12-29T04:52:42;97049.53;;;10.18;100.00
11448;BME280;43755;49.736;8.734;2022-12-29T04:54:44;97054.09;;;10.14;100.00
11448;BME280;43755;49.736;8.734;2022-12-29T04:56:46;97053.22;;;10.14;100.00
11448;BME280;43755;49.736;8.734;2022-12-29T04:58:48;97055.13;;;10.12;100.00
11448;BME280;43755;49.736;8.734;2022-12-29T05:00:50;97052.38;;;10.13;100.00
11448;BME280;43755;49.736;8.734;2022-12-29T05:02:51;97058.50;;;10.14;100.00
11448;BME280;43755;49.736;8.734;2022-12-29T05:04:53;97062.13;;;10.13;100.00
11448;BME280;43755;49.736;8.734;2022-12-29T05:06:54;97054.94;;;10.15;100.00
11448;BME280;43755;49.736;8.734;2022-12-29T05:08:55;97067.19;;;10.17;100.00
11448;BME280;43755;49.736;8.734;2022-12-29T05:10:57;97049.53;;;10.18;100.00
11448;BME280;43755;49.736;8.734;2022-12-29T05:13:00;97048.69;;;10.17;100.00
11448;BME280;43755;49.736;8.734;2022-12-29T05:15:02;97057.34;;;10.19;100.00
11448;BME280;43755;49.736;8.734;2022-12-29T05:17:03;97055.47;;;10.21;100.00
11448;BME280;43755;49.736;8.734;2022-12-29T05:19:05;97054.56;;;10.22;100.00
11448;BME280;43755;49.736;8.734;2022-12-29T05:21:06;97069.56;;;10.22;100.00
11448;BME280;43755;49.736;8.734;2022-12-29T05:23:08;97068.63;;;10.23;100.00
11448;BME280;43755;49.736;8.734;2022-12-29T05:25:09;97074.84;;;10.22;100.00
11448;BME280;43755;49.736;8.734;2022-12-29T05:27:11;97068.88;;;10.18;100.00
11448;BME280;43755;49.736;8.734;2022-12-29T05:29:14;97059.91;;;10.21;100.00
11448;BME280;43755;49.736;8.734;2022-12-29T05:31:15;97052.75;;;10.23;100.00
11448;BME280;43755;49.736;8.734;2022-12-29T05:33:17;97058.56;;;10.30;100.00
11448;BME280;43755;49.736;8.734;2022-12-29T05:35:19;97065.91;;;10.24;100.00
11448;BME280;43755;49.736;8.734;2022-12-29T05:37:20;97057.72;;;10.29;100.00
11448;BME280;43755;49.736;8.734;2022-12-29T05:39:21;97062.41;;;10.24;100.00
11448;BME280;43755;49.736;8.734;2022-12-29T05:41:23;97071.00;;;10.27;100.00
11448;BME280;43755;49.736;8.734;2022-12-29T05:43:24;97068.00;;;10.34;100.00
11448;BME280;43755;49.736;8.734;2022-12-29T05:45:27;97061.00;;;10.33;100.00
11448;BME280;43755;49.736;8.734;2022-12-29T05:47:29;97074.06;;;10.36;100.00
11448;BME280;43755;49.736;8.734;2022-12-29T05:49:30;97073.03;;;10.38;100.00
11448;BME280;43755;49.736;8.734;2022-12-29T05:51:32;97069.53;;;10.38;100.00
11448;BME280;43755;49.736;8.734;2022-12-29T05:53:33;97043.94;;;10.38;100.00
11448;BME280;43755;49.736;8.734;2022-12-29T05:55:35;97055.38;;;10.39;100.00
11448;BME280;43755;49.736;8.734;2022-12-29T05:57:36;97054.78;;;10.34;100.00
11448;BME280;43755;49.736;8.734;2022-12-29T05:59:38;97059.81;;;10.38;100.00
11448;BME280;43755;49.736;8.734;2022-12-29T06:01:40;97050.19;;;10.37;100.00
11448;BME280;43755;49.736;8.734;2022-12-29T06:03:42;97056.44;;;10.36;100.00
11448;BME280;43755;49.736;8.734;2022-12-29T06:05:44;97041.31;;;10.38;100.00
11448;BME280;43755;49.736;8.734;2022-12-29T06:07:45;97045.75;;;10.38;100.00
11448;BME280;43755;49.736;8.734;2022-12-29T06:09:47;97043.28;;;10.35;100.00
11448;BME280;43755;49.736;8.734;2022-12-29T06:11:48;97045.06;;;10.34;100.00
11448;BME280;43755;49.736;8.734;2022-12-29T06:13:50;97043.38;;;10.33;100.00
11448;BME280;43755;49.736;8.734;2022-12-29T06:15:51;97038.66;;;10.38;100.00
11448;BME280;43755;49.736;8.734;2022-12-29T06:17:54;97054.72;;;10.35;100.00
11448;BME280;43755;49.736;8.734;2022-12-29T06:19:55;97048.00;;;10.30;100.00
11448;BME280;43755;49.736;8.734;2022-12-29T06:21:56;97053.44;;;10.26;100.00
11448;BME280;43755;49.736;8.734;2022-12-29T06:23:58;97050.44;;;10.33;100.00
11448;BME280;43755;49.736;8.734;2022-12-29T06:25:59;97061.22;;;10.30;100.00
11448;BME280;43755;49.736;8.734;2022-12-29T06:28:01;97048.91;;;10.29;100.00
11448;BME280;43755;49.736;8.734;2022-12-29T06:30:03;97060.75;;;10.37;100.00
11448;BME280;43755;49.736;8.734;2022-12-29T06:32:04;97053.66;;;10.38;100.00
11448;BME280;43755;49.736;8.734;2022-12-29T06:34:07;97043.94;;;10.38;100.00
11448;BME280;43755;49.736;8.734;2022-12-29T06:36:09;97052.00;;;10.37;100.00
11448;BME280;43755;49.736;8.734;2022-12-29T06:38:10;97041.50;;;10.35;100.00
11448;BME280;43755;49.736;8.734;2022-12-29T06:40:12;97045.50;;;10.42;100.00
11448;BME280;43755;49.736;8.734;2022-12-29T06:42:13;97030.38;;;10.44;100.00
11448;BME280;43755;49.736;8.734;2022-12-29T06:44:14;97062.19;;;10.43;100.00
11448;BME280;43755;49.736;8.734;2022-12-29T06:46:16;97050.88;;;10.41;100.00
11448;BME280;43755;49.736;8.734;2022-12-29T06:48:17;97057.00;;;10.41;100.00
11448;BME280;43755;49.736;8.734;2022-12-29T06:50:20;97045.66;;;10.39;100.00
11448;BME280;43755;49.736;8.734;2022-12-29T06:52:21;97049.94;;;10.42;100.00
11448;BME280;43755;49.736;8.734;2022-12-29T06:54:24;97040.28;;;10.41;100.00
11448;BME280;43755;49.736;8.734;2022-12-29T06:56:25;97036.59;;;10.43;100.00
11448;BME280;43755;49.736;8.734;2022-12-29T06:58:26;97053.91;;;10.49;100.00
11448;BME280;43755;49.736;8.734;2022-12-29T07:00:28;97056.41;;;10.52;100.00
11448;BME280;43755;49.736;8.734;2022-12-29T07:02:29;97054.88;;;10.48;100.00
11448;BME280;43755;49.736;8.734;2022-12-29T07:04:31;97069.97;;;10.46;100.00
11448;BME280;43755;49.736;8.734;2022-12-29T07:06:34;97066.31;;;10.48;100.00
11448;BME280;43755;49.736;8.734;2022-12-29T07:08:35;97072.41;;;10.49;100.00
11448;BME280;43755;49.736;8.734;2022-12-29T07:10:36;97066.53;;;10.44;100.00
11448;BME280;43755;49.736;8.734;2022-12-29T07:12:38;97064.69;;;10.46;100.00
11448;BME280;43755;49.736;8.734;2022-12-29T07:14:39;97066.19;;;10.50;100.00
11448;BME280;43755;49.736;8.734;2022-12-29T07:16:41;97064.63;;;10.61;100.00
11448;BME280;43755;49.736;8.734;2022-12-29T07:18:42;97065.91;;;10.70;100.00
11448;BME280;43755;49.736;8.734;2022-12-29T07:20:44;97067.44;;;10.74;100.00
11448;BME280;43755;49.736;8.734;2022-12-29T07:22:46;97068.22;;;10.76;100.00
11448;BME280;43755;49.736;8.734;2022-12-29T07:24:48;97073.56;;;10.75;100.00
11448;BME280;43755;49.736;8.734;2022-12-29T07:26:49;97081.94;;;10.67;100.00
11448;BME280;43755;49.736;8.734;2022-12-29T07:28:51;97079.84;;;10.58;100.00
11448;BME280;43755;49.736;8.734;2022-12-29T07:30:53;97076.69;;;10.51;100.00
11448;BME280;43755;49.736;8.734;2022-12-29T07:32:54;97083.00;;;10.49;100.00
11448;BME280;43755;49.736;8.734;2022-12-29T07:34:55;97085.28;;;10.55;100.00
11448;BME280;43755;49.736;8.734;2022-12-29T07:36:57;97073.13;;;10.52;100.00
11448;BME280;43755;49.736;8.734;2022-12-29T07:39:00;97093.41;;;10.52;100.00
11448;BME280;43755;49.736;8.734;2022-12-29T07:41:01;97095.78;;;10.56;100.00
11448;BME280;43755;49.736;8.734;2022-12-29T07:43:02;97087.19;;;10.53;100.00
11448;BME280;43755;49.736;8.734;2022-12-29T07:45:05;97095.72;;;10.58;100.00
11448;BME280;43755;49.736;8.734;2022-12-29T07:47:06;97093.06;;;10.58;100.00
11448;BME280;43755;49.736;8.734;2022-12-29T07:49:08;97088.72;;;10.57;100.00
11448;BME280;43755;49.736;8.734;2022-12-29T07:51:09;97087.84;;;10.56;100.00
11448;BME280;43755;49.736;8.734;2022-12-29T07:53:11;97099.28;;;10.57;100.00
11448;BME280;43755;49.736;8.734;2022-12-29T07:55:14;97088.56;;;10.60;100.00
11448;BME280;43755;49.736;8.734;2022-12-29T07:57:15;97099.78;;;10.63;100.00
11448;BME280;43755;49.736;8.734;2022-12-29T07:59:17;97118.38;;;10.62;100.00
11448;BME280;43755;49.736;8.734;2022-12-29T08:01:18;97095.28;;;10.65;100.00
11448;BME280;43755;49.736;8.734;2022-12-29T08:03:20;97105.44;;;10.57;100.00
11448;BME280;43755;49.736;8.734;2022-12-29T08:05:22;97110.88;;;10.54;100.00
11448;BME280;43755;49.736;8.734;2022-12-29T08:07:24;97121.88;;;10.62;100.00
11448;BME280;43755;49.736;8.734;2022-12-29T08:09:25;97116.25;;;10.68;100.00
11448;BME280;43755;49.736;8.734;2022-12-29T08:11:28;97112.75;;;10.68;100.00
11448;BME280;43755;49.736;8.734;2022-12-29T08:13:29;97110.81;;;10.72;100.00
11448;BME280;43755;49.736;8.734;2022-12-29T08:15:31;97112.41;;;10.74;100.00
11448;BME280;43755;49.736;8.734;2022-12-29T08:17:32;97127.59;;;10.71;100.00
11448;BME280;43755;49.736;8.734;2022-12-29T08:19:34;97125.13;;;10.83;100.00
11448;BME280;43755;49.736;8.734;2022-12-29T08:21:35;97124.94;;;10.86;100.00
11448;BME280;43755;49.736;8.734;2022-12-29T08:23:36;97140.81;;;10.86;100.00
11448;BME280;43755;49.736;8.734;2022-12-29T08:25:38;97124.94;;;10.86;100.00
11448;BME280;43755;49.736;8.734;2022-12-29T08:27:40;97118.50;;;10.90;100.00
11448;BME280;43755;49.736;8.734;2022-12-29T08:29:42;97117.75;;;10.88;100.00
11448;BME280;43755;49.736;8.734;2022-12-29T08:31:43;97119.28;;;10.92;100.00
11448;BME280;43755;49.736;8.734;2022-12-29T08:33:45;97118.84;;;11.00;100.00
11448;BME280;43755;49.736;8.734;2022-12-29T08:35:47;97128.38;;;11.02;100.00
11448;BME280;43755;49.736;8.734;2022-12-29T08:37:48;97129.72;;;11.09;100.00
11448;BME280;43755;49.736;8.734;2022-12-29T08:39:50;97128.78;;;11.11;100.00
11448;BME280;43755;49.736;8.734;2022-12-29T08:41:51;97129.38;;;11.16;100.00
11448;BME280;43755;49.736;8.734;2022-12-29T08:43:54;97127.94;;;11.10;100.00
11448;BME280;43755;49.736;8.734;2022-12-29T08:45:57;97121.13;;;11.06;100.00
11448;BME280;43755;49.736;8.734;2022-12-29T08:47:58;97120.38;;;11.04;100.00
11448;BME280;43755;49.736;8.734;2022-12-29T08:49:59;97112.63;;;11.01;100.00
11448;BME280;43755;49.736;8.734;2022-12-29T08:52:01;97125.22;;;10.96;100.00
11448;BME280;43755;49.736;8.734;2022-12-29T08:54:03;97110.22;;;10.96;100.00
11448;BME280;43755;49.736;8.734;2022-12-29T08:56:05;97110.72;;;11.03;100.00
11448;BME280;43755;49.736;8.734;2022-12-29T08:58:06;97128.31;;;11.04;100.00
11448;BME280;43755;49.736;8.734;2022-12-29T09:00:10;97116.00;;;11.03;100.00
11448;BME280;43755;49.736;8.734;2022-12-29T09:02:12;97109.97;;;11.01;100.00
11448;BME280;43755;49.736;8.734;2022-12-29T09:04:13;97115.00;;;11.05;100.00
11448;BME280;43755;49.736;8.734;2022-12-29T09:06:16;97122.94;;;11.05;100.00
11448;BME280;43755;49.736;8.734;2022-12-29T09:08:18;97115.84;;;11.06;100.00
11448;BME280;43755;49.736;8.734;2022-12-29T09:10:19;97112.13;;;11.08;100.00
11448;BME280;43755;49.736;8.734;2022-12-29T09:12:20;97120.00;;;11.10;100.00
11448;BME280;43755;49.736;8.734;2022-12-29T09:14:22;97116.50;;;11.09;100.00
11448;BME280;43755;49.736;8.734;2022-12-29T09:16:24;97127.00;;;11.11;100.00
11448;BME280;43755;49.736;8.734;2022-12-29T09:18:27;97118.66;;;11.03;100.00
11448;BME280;43755;49.736;8.734;2022-12-29T09:20:28;97120.28;;;11.05;100.00
11448;BME280;43755;49.736;8.734;2022-12-29T09:22:29;97115.66;;;11.09;100.00
11448;BME280;43755;49.736;8.734;2022-12-29T09:24:31;97133.44;;;11.07;100.00
11448;BME280;43755;49.736;8.734;2022-12-29T09:26:32;97132.75;;;11.03;100.00
11448;BME280;43755;49.736;8.734;2022-12-29T09:28:34;97143.41;;;11.02;100.00
11448;BME280;43755;49.736;8.734;2022-12-29T09:30:35;97126.69;;;11.01;100.00
11448;BME280;43755;49.736;8.734;2022-12-29T09:32:38;97133.59;;;11.04;100.00
11448;BME280;43755;49.736;8.734;2022-12-29T09:34:39;97138.72;;;11.07;100.00
11448;BME280;43755;49.736;8.734;2022-12-29T09:36:41;97134.88;;;11.13;100.00
11448;BME280;43755;49.736;8.734;2022-12-29T09:38:42;97161.50;;;11.09;100.00
11448;BME280;43755;49.736;8.734;2022-12-29T09:40:45;97135.81;;;11.12;100.00
11448;BME280;43755;49.736;8.734;2022-12-29T09:42:55;97142.69;;;11.14;100.00
11448;BME280;43755;49.736;8.734;2022-12-29T09:45:09;97141.84;;;11.14;100.00
11448;BME280;43755;49.736;8.734;2022-12-29T09:47:14;97158.78;;;11.11;100.00
11448;BME280;43755;49.736;8.734;2022-12-29T09:49:25;97132.22;;;11.13;100.00
11448;BME280;43755;49.736;8.734;2022-12-29T09:51:30;97138.38;;;11.13;100.00
11448;BME280;43755;49.736;8.734;2022-12-29T09:53:36;97149.97;;;11.11;100.00
11448;BME280;43755;49.736;8.734;2022-12-29T09:55:42;97138.25;;;11.15;100.00
11448;BME280;43755;49.736;8.734;2022-12-29T09:57:49;97149.91;;;11.12;100.00
11448;BME280;43755;49.736;8.734;2022-12-29T09:59:57;97152.34;;;11.15;100.00
11448;BME280;43755;49.736;8.734;2022-12-29T10:02:04;97147.53;;;11.22;100.00
11448;BME280;43755;49.736;8.734;2022-12-29T10:04:13;97122.59;;;11.26;100.00
11448;BME280;43755;49.736;8.734;2022-12-29T10:06:20;97143.59;;;11.29;100.00
11448;BME280;43755;49.736;8.734;2022-12-29T10:08:31;97141.22;;;11.24;100.00
11448;BME280;43755;49.736;8.734;2022-12-29T10:10:38;97146.53;;;11.24;100.00
11448;BME280;43755;49.736;8.734;2022-12-29T10:12:54;97156.63;;;11.18;100.00
11448;BME280;43755;49.736;8.734;2022-12-29T10:15:04;97170.78;;;11.17;100.00
11448;BME280;43755;49.736;8.734;2022-12-29T10:17:21;97168.22;;;11.15;100.00
11448;BME280;43755;49.736;8.734;2022-12-29T10:19:35;97153.28;;;11.14;100.00
11448;BME280;43755;49.736;8.734;2022-12-29T10:21:56;97164.91;;;11.12;100.00
11448;BME280;43755;49.736;8.734;2022-12-29T10:24:04;97166.50;;;11.14;100.00
11448;BME280;43755;49.736;8.734;2022-12-29T10:26:12;97167.88;;;11.21;100.00
11448;BME280;43755;49.736;8.734;2022-12-29T10:28:18;97162.91;;;11.31;100.00
11448;BME280;43755;49.736;8.734;2022-12-29T10:30:21;97163.56;;;11.34;100.00
11448;BME280;43755;49.736;8.734;2022-12-29T10:32:30;97158.69;;;11.42;100.00
11448;BME280;43755;49.736;8.734;2022-12-29T10:34:36;97168.41;;;11.42;100.00
11448;BME280;43755;49.736;8.734;2022-12-29T10:36:42;97158.69;;;11.42;100.00
11448;BME280;43755;49.736;8.734;2022-12-29T10:38:51;97166.63;;;11.42;100.00
11448;BME280;43755;49.736;8.734;2022-12-29T10:40:58;97165.00;;;11.40;100.00
11448;BME280;43755;49.736;8.734;2022-12-29T10:43:06;97168.50;;;11.40;100.00
11448;BME280;43755;49.736;8.734;2022-12-29T10:45:15;97169.03;;;11.31;100.00
11448;BME280;43755;49.736;8.734;2022-12-29T10:47:20;97178.72;;;11.17;100.00
11448;BME280;43755;49.736;8.734;2022-12-29T10:49:24;97183.59;;;11.08;100.00
11448;BME280;43755;49.736;8.734;2022-12-29T10:51:29;97170.84;;;11.01;100.00
11448;BME280;43755;49.736;8.734;2022-12-29T10:53:36;97179.13;;;10.95;100.00